sensor_id;sensor_type;location;lat;lon;timestamp;P1;durP1;ratioP1;P2;durP2;ratioP2
76380;SDS011;65202;52.520;10.528;2022-12-18T00:01:27;75.97;;;39.65;;
76380;SDS011;65202;52.520;10.528;2022-12-18T00:04:01;78.00;;;38.88;;
76380;SDS011;65202;52.520;10.528;2022-12-18T00:06:31;79.18;;;39.38;;
76380;SDS011;65202;52.520;10.528;2022-12-18T00:08:59;78.35;;;39.60;;
76380;SDS011;65202;52.520;10.528;2022-12-18T00:11:29;75.10;;;36.88;;
76380;SDS011;65202;52.520;10.528;2022-12-18T00:13:58;81.55;;;40.75;;
76380;SDS011;65202;52.520;10.528;2022-12-18T00:16:27;84.13;;;40.80;;
76380;SDS011;65202;52.520;10.528;2022-12-18T00:18:58;79.68;;;39.85;;
76380;SDS011;65202;52.520;10.528;2022-12-18T00:21:27;90.25;;;42.08;;
76380;SDS011;65202;52.520;10.528;2022-12-18T00:23:56;97.63;;;45.72;;
76380;SDS011;65202;52.520;10.528;2022-12-18T00:26:26;101.53;;;45.85;;
76380;SDS011;65202;52.520;10.528;2022-12-18T00:29:00;98.40;;;45.33;;
76380;SDS011;65202;52.520;10.528;2022-12-18T00:31:31;96.70;;;46.40;;
76380;SDS011;65202;52.520;10.528;2022-12-18T00:34:00;103.70;;;47.78;;
76380;SDS011;65202;52.520;10.528;2022-12-18T00:36:29;105.82;;;47.22;;
76380;SDS011;65202;52.520;10.528;2022-12-18T00:39:00;77.50;;;35.83;;
76380;SDS011;65202;52.520;10.528;2022-12-18T00:41:30;99.10;;;44.40;;
76380;SDS011;65202;52.520;10.528;2022-12-18T00:44:17;100.60;;;46.47;;
76380;SDS011;65202;52.520;10.528;2022-12-18T00:46:46;106.80;;;50.03;;
76380;SDS011;65202;52.520;10.528;2022-12-18T00:49:15;94.55;;;47.45;;
76380;SDS011;65202;52.520;10.528;2022-12-18T00:51:46;90.68;;;46.22;;
76380;SDS011;65202;52.520;10.528;2022-12-18T00:54:13;87.32;;;45.75;;
76380;SDS011;65202;52.520;10.528;2022-12-18T00:56:42;85.22;;;42.20;;
76380;SDS011;65202;52.520;10.528;2022-12-18T00:59:17;92.38;;;44.90;;
76380;SDS011;65202;52.520;10.528;2022-12-18T01:01:45;83.65;;;41.88;;
76380;SDS011;65202;52.520;10.528;2022-12-18T01:04:13;76.72;;;39.30;;
76380;SDS011;65202;52.520;10.528;2022-12-18T01:06:41;83.03;;;38.55;;
76380;SDS011;65202;52.520;10.528;2022-12-18T01:09:08;75.88;;;36.17;;
76380;SDS011;65202;52.520;10.528;2022-12-18T01:11:36;72.88;;;36.85;;
76380;SDS011;65202;52.520;10.528;2022-12-18T01:14:03;75.32;;;38.47;;
76380;SDS011;65202;52.520;10.528;2022-12-18T01:16:30;73.43;;;36.25;;
76380;SDS011;65202;52.520;10.528;2022-12-18T01:18:57;72.63;;;37.30;;
76380;SDS011;65202;52.520;10.528;2022-12-18T01:21:25;78.72;;;38.58;;
76380;SDS011;65202;52.520;10.528;2022-12-18T01:23:53;75.03;;;39.78;;
76380;SDS011;65202;52.520;10.528;2022-12-18T01:26:22;86.90;;;42.15;;
76380;SDS011;65202;52.520;10.528;2022-12-18T01:28:53;82.72;;;40.65;;
76380;SDS011;65202;52.520;10.528;2022-12-18T01:33:50;87.45;;;42.53;;
76380;SDS011;65202;52.520;10.528;2022-12-18T01:36:26;84.97;;;39.17;;
76380;SDS011;65202;52.520;10.528;2022-12-18T01:39:00;80.93;;;40.20;;
76380;SDS011;65202;52.520;10.528;2022-12-18T01:41:33;79.68;;;40.47;;
76380;SDS011;65202;52.520;10.528;2022-12-18T01:44:54;78.35;;;38.90;;
76380;SDS011;65202;52.520;10.528;2022-12-18T01:47:26;87.38;;;40.58;;
76380;SDS011;65202;52.520;10.528;2022-12-18T01:50:03;80.38;;;39.47;;
76380;SDS011;65202;52.520;10.528;2022-12-18T01:55:16;81.25;;;37.78;;
76380;SDS011;65202;52.520;10.528;2022-12-18T01:57:49;81.13;;;38.63;;
76380;SDS011;65202;52.520;10.528;2022-12-18T02:00:21;81.40;;;38.33;;
76380;SDS011;65202;52.520;10.528;2022-12-18T02:02:51;78.32;;;38.33;;
76380;SDS011;65202;52.520;10.528;2022-12-18T02:05:23;78.03;;;38.63;;
76380;SDS011;65202;52.520;10.528;2022-12-18T02:17:22;81.03;;;39.35;;
76380;SDS011;65202;52.520;10.528;2022-12-18T02:23:05;79.85;;;38.78;;
76380;SDS011;65202;52.520;10.528;2022-12-18T02:26:17;88.00;;;41.15;;
76380;SDS011;65202;52.520;10.528;2022-12-18T02:29:18;82.10;;;39.00;;
76380;SDS011;65202;52.520;10.528;2022-12-18T02:31:56;86.70;;;40.10;;
76380;SDS011;65202;52.520;10.528;2022-12-18T02:34:28;87.18;;;40.67;;
76380;SDS011;65202;52.520;10.528;2022-12-18T02:37:00;78.90;;;38.75;;
76380;SDS011;65202;52.520;10.528;2022-12-18T02:39:33;79.95;;;36.92;;
76380;SDS011;65202;52.520;10.528;2022-12-18T02:42:03;84.85;;;39.70;;
76380;SDS011;65202;52.520;10.528;2022-12-18T02:44:35;70.88;;;36.00;;
76380;SDS011;65202;52.520;10.528;2022-12-18T02:47:11;74.60;;;36.22;;
76380;SDS011;65202;52.520;10.528;2022-12-18T02:49:44;77.05;;;37.15;;
76380;SDS011;65202;52.520;10.528;2022-12-18T02:57:56;78.80;;;37.03;;
76380;SDS011;65202;52.520;10.528;2022-12-18T03:00:36;84.72;;;38.60;;
76380;SDS011;65202;52.520;10.528;2022-12-18T03:03:24;81.88;;;37.88;;
76380;SDS011;65202;52.520;10.528;2022-12-18T03:06:43;75.65;;;36.67;;
76380;SDS011;65202;52.520;10.528;2022-12-18T03:09:11;73.25;;;35.63;;
76380;SDS011;65202;52.520;10.528;2022-12-18T03:11:45;81.32;;;37.92;;
76380;SDS011;65202;52.520;10.528;2022-12-18T03:14:40;74.32;;;36.50;;
76380;SDS011;65202;52.520;10.528;2022-12-18T03:17:13;82.57;;;38.27;;
76380;SDS011;65202;52.520;10.528;2022-12-18T03:19:45;78.80;;;38.47;;
76380;SDS011;65202;52.520;10.528;2022-12-18T03:22:15;74.57;;;36.75;;
76380;SDS011;65202;52.520;10.528;2022-12-18T03:24:44;79.53;;;36.78;;
76380;SDS011;65202;52.520;10.528;2022-12-18T03:27:15;77.60;;;36.28;;
76380;SDS011;65202;52.520;10.528;2022-12-18T03:29:50;79.60;;;38.63;;
76380;SDS011;65202;52.520;10.528;2022-12-18T03:32:42;88.22;;;41.47;;
76380;SDS011;65202;52.520;10.528;2022-12-18T03:35:33;91.40;;;39.40;;
76380;SDS011;65202;52.520;10.528;2022-12-18T03:38:06;84.45;;;40.35;;
76380;SDS011;65202;52.520;10.528;2022-12-18T03:40:39;89.50;;;40.33;;
76380;SDS011;65202;52.520;10.528;2022-12-18T03:46:48;73.60;;;35.83;;
76380;SDS011;65202;52.520;10.528;2022-12-18T03:49:35;77.93;;;36.13;;
76380;SDS011;65202;52.520;10.528;2022-12-18T03:55:00;71.65;;;35.47;;
76380;SDS011;65202;52.520;10.528;2022-12-18T03:57:30;76.25;;;35.72;;
76380;SDS011;65202;52.520;10.528;2022-12-18T04:00:00;74.03;;;36.25;;
76380;SDS011;65202;52.520;10.528;2022-12-18T04:02:36;81.72;;;36.80;;
76380;SDS011;65202;52.520;10.528;2022-12-18T04:05:11;76.63;;;37.08;;
76380;SDS011;65202;52.520;10.528;2022-12-18T04:07:41;82.82;;;36.70;;
76380;SDS011;65202;52.520;10.528;2022-12-18T04:10:11;77.68;;;37.35;;
76380;SDS011;65202;52.520;10.528;2022-12-18T04:12:41;74.82;;;35.20;;
76380;SDS011;65202;52.520;10.528;2022-12-18T04:15:09;71.35;;;34.85;;
76380;SDS011;65202;52.520;10.528;2022-12-18T04:17:38;74.20;;;35.60;;
76380;SDS011;65202;52.520;10.528;2022-12-18T04:20:16;74.45;;;34.50;;
76380;SDS011;65202;52.520;10.528;2022-12-18T04:22:44;75.97;;;34.97;;
76380;SDS011;65202;52.520;10.528;2022-12-18T04:25:12;73.75;;;34.92;;
76380;SDS011;65202;52.520;10.528;2022-12-18T04:27:40;72.00;;;35.35;;
76380;SDS011;65202;52.520;10.528;2022-12-18T04:30:07;73.88;;;34.53;;
76380;SDS011;65202;52.520;10.528;2022-12-18T04:32:35;75.78;;;32.92;;
76380;SDS011;65202;52.520;10.528;2022-12-18T04:35:03;69.93;;;33.75;;
76380;SDS011;65202;52.520;10.528;2022-12-18T04:37:33;75.18;;;33.65;;
76380;SDS011;65202;52.520;10.528;2022-12-18T04:40:00;70.97;;;32.95;;
76380;SDS011;65202;52.520;10.528;2022-12-18T04:42:27;72.35;;;33.55;;
76380;SDS011;65202;52.520;10.528;2022-12-18T04:44:54;72.97;;;34.97;;
76380;SDS011;65202;52.520;10.528;2022-12-18T04:47:21;236.82;;;71.15;;
76380;SDS011;65202;52.520;10.528;2022-12-18T04:49:49;73.53;;;34.53;;
76380;SDS011;65202;52.520;10.528;2022-12-18T04:52:16;71.28;;;33.60;;
76380;SDS011;65202;52.520;10.528;2022-12-18T04:54:43;72.35;;;34.05;;
76380;SDS011;65202;52.520;10.528;2022-12-18T04:57:10;73.00;;;34.58;;
76380;SDS011;65202;52.520;10.528;2022-12-18T04:59:37;74.00;;;32.78;;
76380;SDS011;65202;52.520;10.528;2022-12-18T05:02:05;76.43;;;33.50;;
76380;SDS011;65202;52.520;10.528;2022-12-18T05:04:32;76.78;;;35.38;;
76380;SDS011;65202;52.520;10.528;2022-12-18T05:07:00;67.68;;;32.83;;
76380;SDS011;65202;52.520;10.528;2022-12-18T05:09:27;68.05;;;32.85;;
76380;SDS011;65202;52.520;10.528;2022-12-18T05:11:54;68.78;;;33.15;;
76380;SDS011;65202;52.520;10.528;2022-12-18T05:14:21;72.78;;;33.45;;
76380;SDS011;65202;52.520;10.528;2022-12-18T05:16:48;64.32;;;32.20;;
76380;SDS011;65202;52.520;10.528;2022-12-18T05:19:16;73.75;;;34.35;;
76380;SDS011;65202;52.520;10.528;2022-12-18T05:21:43;69.30;;;33.22;;
76380;SDS011;65202;52.520;10.528;2022-12-18T05:24:11;76.60;;;34.13;;
76380;SDS011;65202;52.520;10.528;2022-12-18T05:26:38;72.07;;;33.90;;
76380;SDS011;65202;52.520;10.528;2022-12-18T05:29:07;71.85;;;33.10;;
76380;SDS011;65202;52.520;10.528;2022-12-18T05:31:34;64.65;;;32.97;;
76380;SDS011;65202;52.520;10.528;2022-12-18T05:34:05;70.00;;;32.63;;
76380;SDS011;65202;52.520;10.528;2022-12-18T05:36:33;68.93;;;33.30;;
76380;SDS011;65202;52.520;10.528;2022-12-18T05:39:00;63.97;;;31.98;;
76380;SDS011;65202;52.520;10.528;2022-12-18T05:41:27;70.82;;;32.92;;
76380;SDS011;65202;52.520;10.528;2022-12-18T05:43:55;64.63;;;31.67;;
76380;SDS011;65202;52.520;10.528;2022-12-18T05:46:22;65.50;;;31.60;;
76380;SDS011;65202;52.520;10.528;2022-12-18T05:48:51;67.18;;;32.75;;
76380;SDS011;65202;52.520;10.528;2022-12-18T05:51:19;66.00;;;32.17;;
76380;SDS011;65202;52.520;10.528;2022-12-18T05:53:48;61.00;;;31.67;;
76380;SDS011;65202;52.520;10.528;2022-12-18T05:56:18;66.22;;;32.40;;
76380;SDS011;65202;52.520;10.528;2022-12-18T05:58:50;72.78;;;32.70;;
76380;SDS011;65202;52.520;10.528;2022-12-18T06:01:21;66.53;;;31.90;;
76380;SDS011;65202;52.520;10.528;2022-12-18T06:03:51;65.22;;;31.35;;
76380;SDS011;65202;52.520;10.528;2022-12-18T06:06:20;66.32;;;31.45;;
76380;SDS011;65202;52.520;10.528;2022-12-18T06:08:51;61.47;;;30.73;;
76380;SDS011;65202;52.520;10.528;2022-12-18T06:11:20;66.30;;;30.67;;
76380;SDS011;65202;52.520;10.528;2022-12-18T06:13:51;67.50;;;32.78;;
76380;SDS011;65202;52.520;10.528;2022-12-18T06:16:25;67.95;;;31.02;;
76380;SDS011;65202;52.520;10.528;2022-12-18T06:18:57;64.07;;;32.22;;
76380;SDS011;65202;52.520;10.528;2022-12-18T06:23:55;66.13;;;29.85;;
76380;SDS011;65202;52.520;10.528;2022-12-18T06:26:23;65.93;;;31.73;;
76380;SDS011;65202;52.520;10.528;2022-12-18T06:28:54;68.40;;;30.52;;
76380;SDS011;65202;52.520;10.528;2022-12-18T06:31:21;67.10;;;32.78;;
76380;SDS011;65202;52.520;10.528;2022-12-18T06:33:49;65.85;;;30.95;;
76380;SDS011;65202;52.520;10.528;2022-12-18T06:36:16;69.60;;;32.08;;
76380;SDS011;65202;52.520;10.528;2022-12-18T06:38:44;63.47;;;30.17;;
76380;SDS011;65202;52.520;10.528;2022-12-18T06:41:16;68.15;;;31.17;;
76380;SDS011;65202;52.520;10.528;2022-12-18T06:43:46;68.55;;;32.00;;
76380;SDS011;65202;52.520;10.528;2022-12-18T06:46:13;75.10;;;33.65;;
76380;SDS011;65202;52.520;10.528;2022-12-18T06:48:41;71.07;;;33.42;;
76380;SDS011;65202;52.520;10.528;2022-12-18T06:51:09;72.22;;;33.05;;
76380;SDS011;65202;52.520;10.528;2022-12-18T06:53:36;71.07;;;32.47;;
76380;SDS011;65202;52.520;10.528;2022-12-18T06:56:05;78.53;;;36.78;;
76380;SDS011;65202;52.520;10.528;2022-12-18T06:58:37;83.65;;;37.20;;
76380;SDS011;65202;52.520;10.528;2022-12-18T07:01:07;82.60;;;36.80;;
76380;SDS011;65202;52.520;10.528;2022-12-18T07:03:37;87.85;;;36.83;;
76380;SDS011;65202;52.520;10.528;2022-12-18T07:06:14;81.95;;;37.45;;
76380;SDS011;65202;52.520;10.528;2022-12-18T07:08:44;83.55;;;38.50;;
76380;SDS011;65202;52.520;10.528;2022-12-18T07:11:13;82.93;;;37.42;;
76380;SDS011;65202;52.520;10.528;2022-12-18T07:13:41;75.45;;;33.95;;
76380;SDS011;65202;52.520;10.528;2022-12-18T07:16:11;69.55;;;32.35;;
76380;SDS011;65202;52.520;10.528;2022-12-18T07:18:49;67.15;;;32.30;;
76380;SDS011;65202;52.520;10.528;2022-12-18T07:21:18;71.10;;;34.47;;
76380;SDS011;65202;52.520;10.528;2022-12-18T07:23:48;75.05;;;33.85;;
76380;SDS011;65202;52.520;10.528;2022-12-18T07:26:17;77.18;;;36.55;;
76380;SDS011;65202;52.520;10.528;2022-12-18T07:28:46;76.05;;;37.45;;
76380;SDS011;65202;52.520;10.528;2022-12-18T07:31:16;78.15;;;36.10;;
76380;SDS011;65202;52.520;10.528;2022-12-18T07:33:48;64.03;;;31.75;;
76380;SDS011;65202;52.520;10.528;2022-12-18T07:36:18;64.47;;;30.38;;
76380;SDS011;65202;52.520;10.528;2022-12-18T07:38:49;67.30;;;31.58;;
76380;SDS011;65202;52.520;10.528;2022-12-18T07:41:18;65.13;;;29.77;;
76380;SDS011;65202;52.520;10.528;2022-12-18T07:43:46;67.55;;;30.20;;
76380;SDS011;65202;52.520;10.528;2022-12-18T07:46:14;65.10;;;31.67;;
76380;SDS011;65202;52.520;10.528;2022-12-18T07:48:43;69.20;;;31.90;;
76380;SDS011;65202;52.520;10.528;2022-12-18T07:51:15;50.50;;;24.60;;
76380;SDS011;65202;52.520;10.528;2022-12-18T07:53:44;75.85;;;33.03;;
76380;SDS011;65202;52.520;10.528;2022-12-18T07:56:17;67.35;;;33.03;;
76380;SDS011;65202;52.520;10.528;2022-12-18T07:58:54;73.65;;;33.88;;
76380;SDS011;65202;52.520;10.528;2022-12-18T08:01:22;69.50;;;31.92;;
76380;SDS011;65202;52.520;10.528;2022-12-18T08:03:50;64.03;;;30.48;;
76380;SDS011;65202;52.520;10.528;2022-12-18T08:06:18;64.88;;;31.67;;
76380;SDS011;65202;52.520;10.528;2022-12-18T08:08:53;71.07;;;32.77;;
76380;SDS011;65202;52.520;10.528;2022-12-18T08:11:22;71.45;;;32.75;;
76380;SDS011;65202;52.520;10.528;2022-12-18T08:13:52;73.93;;;30.40;;
76380;SDS011;65202;52.520;10.528;2022-12-18T08:16:20;74.93;;;33.85;;
76380;SDS011;65202;52.520;10.528;2022-12-18T08:18:49;72.95;;;34.00;;
76380;SDS011;65202;52.520;10.528;2022-12-18T08:21:19;77.43;;;34.90;;
76380;SDS011;65202;52.520;10.528;2022-12-18T08:23:50;70.47;;;33.47;;
76380;SDS011;65202;52.520;10.528;2022-12-18T08:26:20;70.93;;;32.30;;
76380;SDS011;65202;52.520;10.528;2022-12-18T08:28:49;75.82;;;34.40;;
76380;SDS011;65202;52.520;10.528;2022-12-18T08:31:18;77.00;;;35.25;;
76380;SDS011;65202;52.520;10.528;2022-12-18T08:33:49;76.50;;;35.92;;
76380;SDS011;65202;52.520;10.528;2022-12-18T08:38:47;73.47;;;35.78;;
76380;SDS011;65202;52.520;10.528;2022-12-18T08:41:15;71.13;;;33.40;;
76380;SDS011;65202;52.520;10.528;2022-12-18T08:43:44;72.80;;;35.38;;
76380;SDS011;65202;52.520;10.528;2022-12-18T08:46:37;65.15;;;31.90;;
76380;SDS011;65202;52.520;10.528;2022-12-18T08:49:07;54.72;;;29.80;;
76380;SDS011;65202;52.520;10.528;2022-12-18T08:51:37;58.30;;;31.55;;
76380;SDS011;65202;52.520;10.528;2022-12-18T08:54:06;53.03;;;29.00;;
76380;SDS011;65202;52.520;10.528;2022-12-18T08:56:34;46.90;;;27.08;;
76380;SDS011;65202;52.520;10.528;2022-12-18T08:59:01;45.15;;;26.30;;
76380;SDS011;65202;52.520;10.528;2022-12-18T09:01:28;43.97;;;26.00;;
76380;SDS011;65202;52.520;10.528;2022-12-18T09:03:56;41.47;;;26.27;;
76380;SDS011;65202;52.520;10.528;2022-12-18T09:06:23;43.78;;;25.95;;
76380;SDS011;65202;52.520;10.528;2022-12-18T09:08:50;41.72;;;26.13;;
76380;SDS011;65202;52.520;10.528;2022-12-18T09:11:22;41.67;;;25.40;;
76380;SDS011;65202;52.520;10.528;2022-12-18T09:13:52;40.55;;;25.90;;
76380;SDS011;65202;52.520;10.528;2022-12-18T09:16:21;36.83;;;25.00;;
76380;SDS011;65202;52.520;10.528;2022-12-18T09:18:58;37.03;;;24.98;;
76380;SDS011;65202;52.520;10.528;2022-12-18T09:21:27;37.40;;;24.48;;
76380;SDS011;65202;52.520;10.528;2022-12-18T09:24:02;37.25;;;24.38;;
76380;SDS011;65202;52.520;10.528;2022-12-18T09:26:34;39.67;;;25.08;;
76380;SDS011;65202;52.520;10.528;2022-12-18T09:29:02;38.47;;;24.08;;
76380;SDS011;65202;52.520;10.528;2022-12-18T09:31:30;41.05;;;24.13;;
76380;SDS011;65202;52.520;10.528;2022-12-18T09:33:57;39.80;;;24.60;;
76380;SDS011;65202;52.520;10.528;2022-12-18T09:36:25;42.90;;;25.45;;
76380;SDS011;65202;52.520;10.528;2022-12-18T09:38:52;39.78;;;24.92;;
76380;SDS011;65202;52.520;10.528;2022-12-18T09:44:18;41.05;;;24.67;;
76380;SDS011;65202;52.520;10.528;2022-12-18T09:49:46;44.15;;;26.05;;
76380;SDS011;65202;52.520;10.528;2022-12-18T09:52:24;52.10;;;30.08;;
76380;SDS011;65202;52.520;10.528;2022-12-18T09:57:53;49.33;;;27.73;;
76380;SDS011;65202;52.520;10.528;2022-12-18T10:00:28;59.60;;;29.80;;
76380;SDS011;65202;52.520;10.528;2022-12-18T10:03:03;58.65;;;28.98;;
76380;SDS011;65202;52.520;10.528;2022-12-18T10:05:51;51.20;;;27.85;;
76380;SDS011;65202;52.520;10.528;2022-12-18T10:14:21;53.60;;;27.10;;
76380;SDS011;65202;52.520;10.528;2022-12-18T10:17:02;51.10;;;27.50;;
76380;SDS011;65202;52.520;10.528;2022-12-18T10:19:56;52.10;;;24.80;;
76380;SDS011;65202;52.520;10.528;2022-12-18T10:25:50;51.20;;;24.92;;
76380;SDS011;65202;52.520;10.528;2022-12-18T10:28:19;53.35;;;26.10;;
76380;SDS011;65202;52.520;10.528;2022-12-18T10:30:48;52.15;;;24.80;;
76380;SDS011;65202;52.520;10.528;2022-12-18T10:33:17;51.15;;;25.40;;
76380;SDS011;65202;52.520;10.528;2022-12-18T10:35:49;50.70;;;26.27;;
76380;SDS011;65202;52.520;10.528;2022-12-18T10:41:02;54.40;;;25.80;;
76380;SDS011;65202;52.520;10.528;2022-12-18T10:46:45;52.40;;;25.80;;
76380;SDS011;65202;52.520;10.528;2022-12-18T10:49:23;54.75;;;25.63;;
76380;SDS011;65202;52.520;10.528;2022-12-18T10:52:12;49.75;;;25.80;;
76380;SDS011;65202;52.520;10.528;2022-12-18T10:54:48;50.42;;;25.13;;
76380;SDS011;65202;52.520;10.528;2022-12-18T10:57:35;53.83;;;26.73;;
76380;SDS011;65202;52.520;10.528;2022-12-18T11:02:55;49.60;;;25.40;;
76380;SDS011;65202;52.520;10.528;2022-12-18T11:05:31;58.30;;;27.70;;
76380;SDS011;65202;52.520;10.528;2022-12-18T11:08:03;51.03;;;25.45;;
76380;SDS011;65202;52.520;10.528;2022-12-18T11:10:35;55.58;;;27.77;;
76380;SDS011;65202;52.520;10.528;2022-12-18T11:13:22;53.25;;;27.63;;
76380;SDS011;65202;52.520;10.528;2022-12-18T11:15:53;58.30;;;27.33;;
76380;SDS011;65202;52.520;10.528;2022-12-18T11:21:09;58.72;;;29.08;;
76380;SDS011;65202;52.520;10.528;2022-12-18T11:23:46;57.75;;;28.77;;
76380;SDS011;65202;52.520;10.528;2022-12-18T11:26:18;52.17;;;26.00;;
76380;SDS011;65202;52.520;10.528;2022-12-18T11:28:47;50.95;;;27.05;;
76380;SDS011;65202;52.520;10.528;2022-12-18T11:34:10;53.80;;;27.98;;
76380;SDS011;65202;52.520;10.528;2022-12-18T11:36:55;59.47;;;29.25;;
76380;SDS011;65202;52.520;10.528;2022-12-18T11:50:33;66.63;;;32.35;;
76380;SDS011;65202;52.520;10.528;2022-12-18T11:53:13;65.37;;;30.60;;
76380;SDS011;65202;52.520;10.528;2022-12-18T11:58:43;68.18;;;31.23;;
76380;SDS011;65202;52.520;10.528;2022-12-18T12:07:51;63.65;;;31.35;;
76380;SDS011;65202;52.520;10.528;2022-12-18T12:10:44;68.75;;;31.00;;
76380;SDS011;65202;52.520;10.528;2022-12-18T12:16:14;70.47;;;32.45;;
76380;SDS011;65202;52.520;10.528;2022-12-18T12:21:43;61.17;;;29.70;;
76380;SDS011;65202;52.520;10.528;2022-12-18T12:36:57;65.93;;;30.67;;
76380;SDS011;65202;52.520;10.528;2022-12-18T12:39:37;58.13;;;29.45;;
76380;SDS011;65202;52.520;10.528;2022-12-18T12:42:28;61.25;;;31.05;;
76380;SDS011;65202;52.520;10.528;2022-12-18T12:45:58;64.07;;;31.20;;
76380;SDS011;65202;52.520;10.528;2022-12-18T12:51:21;66.20;;;31.67;;
76380;SDS011;65202;52.520;10.528;2022-12-18T12:53:53;61.83;;;30.08;;
76380;SDS011;65202;52.520;10.528;2022-12-18T12:56:24;60.63;;;30.80;;
76380;SDS011;65202;52.520;10.528;2022-12-18T12:59:19;61.22;;;30.85;;
76380;SDS011;65202;52.520;10.528;2022-12-18T13:02:15;62.42;;;31.48;;
76380;SDS011;65202;52.520;10.528;2022-12-18T13:07:53;59.15;;;28.52;;
76380;SDS011;65202;52.520;10.528;2022-12-18T13:10:38;59.05;;;29.30;;
76380;SDS011;65202;52.520;10.528;2022-12-18T13:13:11;62.42;;;29.45;;
76380;SDS011;65202;52.520;10.528;2022-12-18T13:16:05;62.53;;;31.90;;
76380;SDS011;65202;52.520;10.528;2022-12-18T13:18:35;62.47;;;30.33;;
76380;SDS011;65202;52.520;10.528;2022-12-18T13:21:22;60.78;;;30.27;;
76380;SDS011;65202;52.520;10.528;2022-12-18T13:23:55;61.95;;;30.92;;
76380;SDS011;65202;52.520;10.528;2022-12-18T13:26:40;62.67;;;30.10;;
76380;SDS011;65202;52.520;10.528;2022-12-18T13:29:08;57.97;;;30.48;;
76380;SDS011;65202;52.520;10.528;2022-12-18T13:36:54;58.85;;;30.55;;
76380;SDS011;65202;52.520;10.528;2022-12-18T13:39:32;59.17;;;30.75;;
76380;SDS011;65202;52.520;10.528;2022-12-18T13:44:39;63.75;;;31.05;;
76380;SDS011;65202;52.520;10.528;2022-12-18T13:50:23;65.10;;;31.38;;
76380;SDS011;65202;52.520;10.528;2022-12-18T13:53:01;64.25;;;32.53;;
76380;SDS011;65202;52.520;10.528;2022-12-18T13:55:31;65.45;;;32.25;;
76380;SDS011;65202;52.520;10.528;2022-12-18T13:58:03;62.33;;;32.58;;
76380;SDS011;65202;52.520;10.528;2022-12-18T14:00:33;62.33;;;31.90;;
76380;SDS011;65202;52.520;10.528;2022-12-18T14:03:00;64.50;;;32.72;;
76380;SDS011;65202;52.520;10.528;2022-12-18T14:05:29;62.88;;;32.63;;
76380;SDS011;65202;52.520;10.528;2022-12-18T14:08:01;67.45;;;32.00;;
76380;SDS011;65202;52.520;10.528;2022-12-18T14:10:35;67.78;;;33.25;;
76380;SDS011;65202;52.520;10.528;2022-12-18T14:13:19;66.05;;;33.72;;
76380;SDS011;65202;52.520;10.528;2022-12-18T14:16:11;69.95;;;34.25;;
76380;SDS011;65202;52.520;10.528;2022-12-18T14:18:44;66.95;;;33.22;;
76380;SDS011;65202;52.520;10.528;2022-12-18T14:21:38;76.78;;;37.00;;
76380;SDS011;65202;52.520;10.528;2022-12-18T14:24:12;73.15;;;35.42;;
76380;SDS011;65202;52.520;10.528;2022-12-18T14:26:46;73.15;;;34.45;;
76380;SDS011;65202;52.520;10.528;2022-12-18T14:29:24;64.55;;;30.90;;
76380;SDS011;65202;52.520;10.528;2022-12-18T14:32:06;61.40;;;30.85;;
76380;SDS011;65202;52.520;10.528;2022-12-18T14:34:44;69.63;;;31.40;;
76380;SDS011;65202;52.520;10.528;2022-12-18T14:37:17;67.82;;;31.35;;
76380;SDS011;65202;52.520;10.528;2022-12-18T14:39:52;58.83;;;29.33;;
76380;SDS011;65202;52.520;10.528;2022-12-18T14:42:28;55.38;;;28.48;;
76380;SDS011;65202;52.520;10.528;2022-12-18T14:48:12;54.80;;;26.67;;
76380;SDS011;65202;52.520;10.528;2022-12-18T14:51:03;55.97;;;27.38;;
76380;SDS011;65202;52.520;10.528;2022-12-18T14:53:47;53.05;;;25.52;;
76380;SDS011;65202;52.520;10.528;2022-12-18T15:04:47;53.05;;;25.25;;
76380;SDS011;65202;52.520;10.528;2022-12-18T15:07:26;46.55;;;23.83;;
76380;SDS011;65202;52.520;10.528;2022-12-18T15:10:00;47.90;;;24.95;;
76380;SDS011;65202;52.520;10.528;2022-12-18T15:12:48;44.10;;;24.05;;
76380;SDS011;65202;52.520;10.528;2022-12-18T15:23:22;65.85;;;33.08;;
76380;SDS011;65202;52.520;10.528;2022-12-18T15:26:01;50.58;;;24.25;;
76380;SDS011;65202;52.520;10.528;2022-12-18T15:28:51;48.08;;;22.70;;
76380;SDS011;65202;52.520;10.528;2022-12-18T15:36:22;41.90;;;20.65;;
76380;SDS011;65202;52.520;10.528;2022-12-18T15:38:54;47.50;;;23.13;;
76380;SDS011;65202;52.520;10.528;2022-12-18T15:41:32;43.33;;;22.90;;
76380;SDS011;65202;52.520;10.528;2022-12-18T15:44:03;48.47;;;23.80;;
76380;SDS011;65202;52.520;10.528;2022-12-18T15:46:48;49.80;;;23.42;;
76380;SDS011;65202;52.520;10.528;2022-12-18T15:49:15;43.90;;;22.00;;
76380;SDS011;65202;52.520;10.528;2022-12-18T15:51:42;43.53;;;23.10;;
76380;SDS011;65202;52.520;10.528;2022-12-18T15:54:12;44.58;;;22.48;;
76380;SDS011;65202;52.520;10.528;2022-12-18T15:56:42;41.83;;;21.75;;
76380;SDS011;65202;52.520;10.528;2022-12-18T15:59:28;43.50;;;22.63;;
76380;SDS011;65202;52.520;10.528;2022-12-18T16:01:56;41.20;;;22.23;;
76380;SDS011;65202;52.520;10.528;2022-12-18T16:04:23;41.15;;;22.15;;
76380;SDS011;65202;52.520;10.528;2022-12-18T16:06:52;37.90;;;20.08;;
76380;SDS011;65202;52.520;10.528;2022-12-18T16:09:39;38.15;;;19.48;;
76380;SDS011;65202;52.520;10.528;2022-12-18T16:12:08;36.47;;;20.25;;
76380;SDS011;65202;52.520;10.528;2022-12-18T16:14:43;39.50;;;18.98;;
76380;SDS011;65202;52.520;10.528;2022-12-18T16:17:12;37.85;;;20.30;;
76380;SDS011;65202;52.520;10.528;2022-12-18T16:19:41;39.92;;;19.45;;
76380;SDS011;65202;52.520;10.528;2022-12-18T16:22:15;44.95;;;22.35;;
76380;SDS011;65202;52.520;10.528;2022-12-18T16:24:51;44.30;;;22.13;;
76380;SDS011;65202;52.520;10.528;2022-12-18T16:27:20;41.47;;;22.17;;
76380;SDS011;65202;52.520;10.528;2022-12-18T16:29:49;45.60;;;20.60;;
76380;SDS011;65202;52.520;10.528;2022-12-18T16:32:18;37.97;;;19.70;;
76380;SDS011;65202;52.520;10.528;2022-12-18T16:34:49;39.22;;;20.70;;
76380;SDS011;65202;52.520;10.528;2022-12-18T16:37:16;35.58;;;19.10;;
76380;SDS011;65202;52.520;10.528;2022-12-18T16:39:43;38.60;;;19.58;;
76380;SDS011;65202;52.520;10.528;2022-12-18T16:42:18;38.35;;;20.08;;
76380;SDS011;65202;52.520;10.528;2022-12-18T16:44:47;40.38;;;19.48;;
76380;SDS011;65202;52.520;10.528;2022-12-18T16:47:16;36.42;;;20.70;;
76380;SDS011;65202;52.520;10.528;2022-12-18T16:49:43;40.10;;;20.85;;
76380;SDS011;65202;52.520;10.528;2022-12-18T16:52:12;42.83;;;21.88;;
76380;SDS011;65202;52.520;10.528;2022-12-18T16:54:40;41.47;;;20.15;;
76380;SDS011;65202;52.520;10.528;2022-12-18T16:57:08;37.40;;;20.90;;
76380;SDS011;65202;52.520;10.528;2022-12-18T16:59:39;38.78;;;20.58;;
76380;SDS011;65202;52.520;10.528;2022-12-18T17:02:12;45.28;;;21.73;;
76380;SDS011;65202;52.520;10.528;2022-12-18T17:04:52;38.15;;;19.60;;
76380;SDS011;65202;52.520;10.528;2022-12-18T17:07:22;37.00;;;19.70;;
76380;SDS011;65202;52.520;10.528;2022-12-18T17:09:51;35.83;;;18.98;;